createdAt,value
2019-01-30T00:00:20.667Z,-3.87
2019-01-30T00:03:27.592Z,-3.99
2019-01-30T00:06:32.801Z,-3.94
2019-01-30T00:09:38.042Z,-4.09
2019-01-30T00:12:43.264Z,-4.07
2019-01-30T00:15:55.994Z,-4.02
2019-01-30T00:18:55.357Z,-4.10
2019-01-30T00:22:00.566Z,-4.20
2019-01-30T00:25:06.932Z,-4.27
2019-01-30T00:28:12.238Z,-4.25
2019-01-30T00:31:17.371Z,-4.24
2019-01-30T00:34:23.495Z,-4.30
2019-01-30T00:37:28.665Z,-4.22
2019-01-30T00:40:33.791Z,-4.25
2019-01-30T00:43:38.877Z,-4.24
2019-01-30T00:46:44.117Z,-4.06
2019-01-30T00:49:49.238Z,-4.17
2019-01-30T00:52:54.413Z,-4.30
2019-01-30T00:55:59.556Z,-4.25
2019-01-30T00:59:04.730Z,-4.30
2019-01-30T01:02:09.946Z,-4.36
2019-01-30T01:05:15.721Z,-4.36
2019-01-30T01:08:20.835Z,-4.37
2019-01-30T01:11:26.052Z,-4.33
2019-01-30T01:14:31.202Z,-4.39
2019-01-30T01:17:36.319Z,-4.37
2019-01-30T01:20:41.541Z,-4.26
2019-01-30T01:23:46.738Z,-4.12
2019-01-30T01:26:51.881Z,-4.18
2019-01-30T01:29:57.038Z,-4.10
2019-01-30T01:33:02.194Z,-3.93
2019-01-30T01:36:07.342Z,-4.11
2019-01-30T01:39:12.436Z,-3.97
2019-01-30T01:42:17.607Z,-3.93
2019-01-30T01:45:23.615Z,-3.87
2019-01-30T01:48:28.881Z,-3.87
2019-01-30T01:51:34.037Z,-3.85
2019-01-30T01:54:39.185Z,-3.73
2019-01-30T01:57:44.488Z,-3.76
2019-01-30T02:00:49.692Z,-3.85
2019-01-30T02:03:54.937Z,-3.74
2019-01-30T02:07:00.027Z,-3.69
2019-01-30T02:10:07.182Z,-3.56
2019-01-30T02:13:12.389Z,-3.08
2019-01-30T02:16:17.530Z,-3.38
2019-01-30T02:19:22.648Z,-3.48
2019-01-30T02:22:27.825Z,-3.47
2019-01-30T02:25:33.151Z,-3.44
2019-01-30T02:28:38.324Z,-3.50
2019-01-30T02:31:43.511Z,-3.47
2019-01-30T02:34:48.685Z,-3.41
2019-01-30T02:37:53.990Z,-3.25
2019-01-30T02:40:59.158Z,-3.23
2019-01-30T02:44:04.341Z,-3.23
2019-01-30T02:47:09.474Z,-2.98
2019-01-30T02:50:17.689Z,-2.94
2019-01-30T02:53:22.848Z,-2.90
2019-01-30T02:56:33.265Z,-2.84
2019-01-30T02:59:39.659Z,-2.79
2019-01-30T03:02:44.882Z,-2.82
2019-01-30T03:05:50.029Z,-2.78
2019-01-30T03:08:55.135Z,-2.82
2019-01-30T03:12:00.297Z,-2.92
2019-01-30T03:15:06.303Z,-2.97
2019-01-30T03:18:11.442Z,-3.03
2019-01-30T03:21:16.583Z,-2.87
2019-01-30T03:24:21.713Z,-2.96
2019-01-30T03:27:26.859Z,-3.01
2019-01-30T03:30:32.615Z,-3.06
2019-01-30T03:33:37.726Z,-2.94
2019-01-30T03:36:42.859Z,-3.05
2019-01-30T03:39:48.112Z,-3.12
2019-01-30T03:42:53.380Z,-3.18
2019-01-30T03:45:58.437Z,-3.07
2019-01-30T03:49:03.594Z,-3.09
2019-01-30T03:52:08.771Z,-3.15
2019-01-30T03:55:15.095Z,-3.06
2019-01-30T03:58:20.407Z,-2.97
2019-01-30T04:01:26.611Z,-2.96
2019-01-30T04:04:32.202Z,-2.81
2019-01-30T04:07:37.304Z,-2.79
2019-01-30T04:10:42.427Z,-2.83
2019-01-30T04:13:47.539Z,-2.75
2019-01-30T04:16:52.686Z,-2.51
2019-01-30T04:19:57.840Z,-2.68
2019-01-30T04:23:02.922Z,-2.70
2019-01-30T04:26:08.077Z,-2.79
2019-01-30T04:29:13.254Z,-2.75
2019-01-30T04:32:18.385Z,-2.84
2019-01-30T04:35:23.559Z,-2.87
2019-01-30T04:38:28.718Z,-2.98
2019-01-30T04:41:34.894Z,-2.79
2019-01-30T04:44:40.029Z,-2.94
2019-01-30T04:47:45.247Z,-2.85
2019-01-30T04:50:50.350Z,-2.78
2019-01-30T04:53:55.485Z,-2.74
2019-01-30T04:57:00.686Z,-2.83
2019-01-30T05:00:07.593Z,-2.88
2019-01-30T05:03:12.731Z,-2.86
2019-01-30T05:06:17.949Z,-2.79
2019-01-30T05:09:23.368Z,-2.81
2019-01-30T05:12:28.528Z,-2.79
2019-01-30T05:15:33.738Z,-2.71
2019-01-30T05:18:38.902Z,-2.70
2019-01-30T05:21:44.053Z,-2.65
2019-01-30T05:24:49.201Z,-2.68
2019-01-30T05:27:54.321Z,-2.49
2019-01-30T05:30:59.561Z,-2.53
2019-01-30T05:34:04.710Z,-2.56
2019-01-30T05:37:09.847Z,-2.51
2019-01-30T05:40:15.900Z,-2.52
2019-01-30T05:43:21.054Z,-2.46
2019-01-30T05:46:26.198Z,-2.47
2019-01-30T05:49:31.379Z,-2.46
2019-01-30T05:52:36.494Z,-2.44
2019-01-30T05:55:41.664Z,-2.42
2019-01-30T05:58:46.797Z,-2.41
2019-01-30T06:01:51.997Z,-2.43
2019-01-30T06:04:57.145Z,-2.43
2019-01-30T06:08:02.297Z,-2.36
2019-01-30T06:11:07.507Z,-2.20
2019-01-30T06:14:12.689Z,-2.22
2019-01-30T06:17:17.802Z,-2.24
2019-01-30T06:20:24.974Z,-1.93
2019-01-30T06:23:30.081Z,-2.07
2019-01-30T06:26:35.212Z,-1.98
2019-01-30T06:29:40.454Z,-1.95
2019-01-30T06:32:45.665Z,-1.87
2019-01-30T06:35:50.855Z,-1.95
2019-01-30T06:38:55.942Z,-1.94
2019-01-30T06:42:01.112Z,-1.87
2019-01-30T06:45:06.955Z,-1.91
2019-01-30T06:48:12.171Z,-1.90
2019-01-30T06:51:17.399Z,-1.85
2019-01-30T06:54:22.663Z,-1.83
2019-01-30T06:57:28.790Z,-1.75
2019-01-30T07:00:33.875Z,-1.80
2019-01-30T07:03:39.080Z,-1.75
2019-01-30T07:06:44.253Z,-1.69
2019-01-30T07:09:49.484Z,-1.76
2019-01-30T07:12:54.611Z,-1.75
2019-01-30T07:16:02.555Z,-1.70
2019-01-30T07:19:07.742Z,-1.68
2019-01-30T07:22:12.913Z,-1.54
2019-01-30T07:25:18.892Z,-1.55
2019-01-30T07:28:24.100Z,-1.54
2019-01-30T07:31:29.221Z,-1.38
2019-01-30T07:34:34.395Z,-1.30
2019-01-30T07:37:39.465Z,-1.29
2019-01-30T07:40:44.690Z,-1.24
2019-01-30T07:43:55.694Z,-1.20
2019-01-30T07:47:02.529Z,-1.11
2019-01-30T07:50:08.598Z,-1.20
2019-01-30T07:53:13.723Z,-1.17
2019-01-30T07:56:18.885Z,-0.98
2019-01-30T07:59:24.030Z,-1.09
2019-01-30T08:02:29.272Z,-1.08
2019-01-30T08:05:34.395Z,-1.14
2019-01-30T08:08:39.495Z,-1.33
2019-01-30T08:11:44.726Z,-1.32
2019-01-30T08:14:49.972Z,-1.37
2019-01-30T08:17:55.131Z,-1.25
2019-01-30T08:21:00.480Z,-1.13
2019-01-30T08:24:06.929Z,-1.12
2019-01-30T08:27:13.326Z,-1.10
2019-01-30T08:30:24.176Z,-1.13
2019-01-30T08:33:29.407Z,-0.98
2019-01-30T08:36:34.628Z,-0.85
2019-01-30T08:39:39.815Z,-0.71
2019-01-30T08:42:44.909Z,-0.84
2019-01-30T08:45:50.091Z,-0.81
2019-01-30T08:48:55.265Z,-0.79
2019-01-30T08:52:00.361Z,-0.71
2019-01-30T08:55:06.409Z,-0.81
2019-01-30T08:58:11.610Z,-0.78
2019-01-30T09:01:16.974Z,-0.74
2019-01-30T09:04:22.152Z,-0.60
2019-01-30T09:07:27.295Z,-0.57
2019-01-30T09:10:32.455Z,-0.86
2019-01-30T09:13:37.587Z,-1.02
2019-01-30T09:16:42.815Z,-0.66
2019-01-30T09:19:47.944Z,-0.77
2019-01-30T09:22:53.249Z,-0.91
2019-01-30T09:25:58.380Z,-0.59
2019-01-30T09:29:03.534Z,-0.67
2019-01-30T09:32:08.653Z,-0.72
2019-01-30T09:35:14.201Z,-0.61
2019-01-30T09:38:20.675Z,-0.56
2019-01-30T09:41:25.811Z,-0.38
2019-01-30T09:44:30.925Z,-0.38
2019-01-30T09:47:36.049Z,-0.37
2019-01-30T09:50:41.215Z,-0.27
2019-01-30T09:53:46.374Z,-0.25
2019-01-30T09:56:51.579Z,-0.09
2019-01-30T09:59:56.754Z,-0.02
2019-01-30T10:03:01.974Z,0.19
2019-01-30T10:06:07.178Z,0.47
2019-01-30T10:09:12.397Z,0.39
2019-01-30T10:12:17.585Z,0.65
2019-01-30T10:15:25.277Z,0.86
2019-01-30T10:18:30.444Z,1.21
2019-01-30T10:21:35.588Z,1.12
2019-01-30T10:24:40.800Z,1.10
2019-01-30T10:27:45.937Z,1.15
2019-01-30T10:30:51.141Z,0.97
2019-01-30T10:33:56.217Z,1.04
2019-01-30T10:37:03.671Z,0.87
2019-01-30T10:40:11.065Z,1.06
2019-01-30T10:43:16.650Z,1.26
2019-01-30T10:46:21.944Z,1.10
2019-01-30T10:49:27.068Z,1.38
2019-01-30T10:52:32.299Z,1.44
2019-01-30T10:55:38.835Z,1.60
2019-01-30T10:58:44.027Z,1.42
2019-01-30T11:01:49.386Z,1.62
2019-01-30T11:04:54.557Z,1.75
2019-01-30T11:07:59.698Z,1.56
2019-01-30T11:11:07.843Z,1.18
2019-01-30T11:14:12.052Z,1.16
2019-01-30T11:17:17.207Z,1.33
2019-01-30T11:20:23.071Z,1.62
2019-01-30T11:23:28.309Z,1.66
2019-01-30T11:26:33.427Z,1.40
2019-01-30T11:29:38.631Z,1.28
2019-01-30T11:32:43.726Z,1.67
2019-01-30T11:35:48.923Z,1.48
2019-01-30T11:38:54.035Z,1.73
2019-01-30T11:41:59.240Z,1.91
2019-01-30T11:45:05.816Z,1.77
2019-01-30T11:48:11.046Z,1.77
2019-01-30T11:51:18.328Z,1.57
2019-01-30T11:54:23.470Z,1.18
2019-01-30T11:57:28.745Z,1.40
2019-01-30T12:00:47.075Z,1.56
2019-01-30T12:03:52.255Z,1.66
2019-01-30T12:06:57.488Z,1.83
2019-01-30T12:10:02.771Z,2.14
2019-01-30T12:13:08.206Z,2.16
2019-01-30T12:16:13.353Z,2.22
2019-01-30T12:19:18.469Z,2.26
2019-01-30T12:22:24.659Z,1.90
2019-01-30T12:25:29.794Z,2.09
2019-01-30T12:28:37.230Z,2.28
2019-01-30T12:31:42.337Z,2.07
2019-01-30T12:34:47.572Z,1.92
2019-01-30T12:37:52.672Z,1.67
2019-01-30T12:40:58.894Z,1.82
2019-01-30T12:44:04.195Z,1.83
2019-01-30T12:47:19.495Z,1.80
2019-01-30T12:50:16.686Z,1.59
2019-01-30T12:53:21.936Z,1.49
2019-01-30T12:56:27.099Z,1.40
2019-01-30T12:59:32.243Z,1.20
2019-01-30T13:02:37.388Z,1.36
2019-01-30T13:05:42.512Z,1.58
2019-01-30T13:08:47.677Z,1.77
2019-01-30T13:11:52.767Z,1.82
2019-01-30T13:14:57.990Z,2.01
2019-01-30T13:18:03.119Z,1.87
2019-01-30T13:21:08.321Z,2.08
2019-01-30T13:24:13.451Z,1.91
2019-01-30T13:27:18.610Z,1.89
2019-01-30T13:30:35.271Z,1.71
2019-01-30T13:33:40.398Z,2.09
2019-01-30T13:36:45.541Z,2.41
2019-01-30T13:39:50.710Z,2.55
2019-01-30T13:42:55.907Z,2.48
2019-01-30T13:46:05.357Z,2.32
2019-01-30T13:49:07.839Z,2.00
2019-01-30T13:52:13.031Z,1.95
2019-01-30T13:55:18.173Z,1.76
2019-01-30T13:58:23.299Z,2.04
2019-01-30T14:01:29.510Z,2.36
2019-01-30T14:04:34.665Z,2.25
2019-01-30T14:07:39.814Z,2.54
2019-01-30T14:10:44.990Z,2.25
2019-01-30T14:13:50.168Z,2.13
2019-01-30T14:16:55.308Z,2.02
2019-01-30T14:20:00.666Z,2.12
2019-01-30T14:23:06.309Z,1.96
2019-01-30T14:26:11.470Z,1.91
2019-01-30T14:29:16.652Z,1.60
2019-01-30T14:32:21.699Z,1.56
2019-01-30T14:35:28.618Z,1.61
2019-01-30T14:38:33.738Z,1.60
2019-01-30T14:41:38.906Z,1.70
2019-01-30T14:44:44.040Z,1.52
2019-01-30T14:47:50.194Z,1.44
2019-01-30T14:50:55.322Z,1.47
2019-01-30T14:54:00.440Z,1.38
2019-01-30T14:57:05.980Z,1.52
2019-01-30T15:00:24.001Z,1.35
2019-01-30T15:03:29.129Z,1.37
2019-01-30T15:06:34.320Z,1.41
2019-01-30T15:09:39.495Z,1.24
2019-01-30T15:12:44.749Z,1.15
2019-01-30T15:15:49.830Z,1.06
2019-01-30T15:18:55.019Z,1.12
2019-01-30T15:22:00.127Z,1.19
2019-01-30T15:25:06.473Z,1.17
2019-01-30T15:28:11.613Z,1.20
2019-01-30T15:31:16.774Z,1.71
2019-01-30T15:34:21.985Z,2.08
2019-01-30T15:37:27.107Z,2.03
2019-01-30T15:40:32.310Z,2.10
2019-01-30T15:43:37.578Z,2.10
2019-01-30T15:46:42.741Z,2.12
2019-01-30T15:49:47.888Z,2.12
2019-01-30T15:52:53.918Z,2.01
2019-01-30T15:55:59.152Z,2.25
2019-01-30T15:59:04.750Z,2.09
2019-01-30T16:02:10.016Z,2.00
2019-01-30T16:05:15.250Z,1.98
2019-01-30T16:08:20.424Z,2.02
2019-01-30T16:11:25.638Z,2.08
2019-01-30T16:14:30.770Z,2.06
2019-01-30T16:17:35.918Z,2.01
2019-01-30T16:20:41.091Z,1.92
2019-01-30T16:23:46.220Z,1.94
2019-01-30T16:26:51.426Z,1.93
2019-01-30T16:29:56.541Z,2.00
2019-01-30T16:33:01.805Z,1.93
2019-01-30T16:36:07.100Z,2.00
2019-01-30T16:39:12.368Z,1.99
2019-01-30T16:42:17.534Z,1.92
2019-01-30T16:45:24.264Z,1.88
2019-01-30T16:48:31.009Z,1.91
2019-01-30T16:51:36.487Z,1.97
2019-01-30T16:54:41.639Z,1.88
2019-01-30T16:57:46.839Z,1.75
2019-01-30T17:00:52.042Z,1.73
2019-01-30T17:03:57.201Z,1.80
2019-01-30T17:07:02.454Z,1.60
2019-01-30T17:10:09.159Z,1.58
2019-01-30T17:13:14.419Z,1.62
2019-01-30T17:16:19.557Z,1.68
2019-01-30T17:19:26.156Z,1.71
2019-01-30T17:22:31.273Z,1.81
2019-01-30T17:25:37.308Z,1.72
2019-01-30T17:28:42.564Z,1.77
2019-01-30T17:31:47.685Z,1.73
2019-01-30T17:34:52.995Z,1.66
2019-01-30T17:37:58.125Z,1.72
2019-01-30T17:41:03.290Z,1.70
2019-01-30T17:44:08.387Z,1.85
2019-01-30T17:47:13.584Z,1.72
2019-01-30T17:50:21.379Z,1.67
2019-01-30T17:53:26.602Z,1.68
2019-01-30T17:56:31.858Z,1.53
2019-01-30T17:59:36.990Z,1.59
2019-01-30T18:02:42.161Z,1.50
2019-01-30T18:05:47.446Z,1.56
2019-01-30T18:08:52.646Z,1.52
2019-01-30T18:11:59.546Z,1.58
2019-01-30T18:15:05.250Z,1.55
2019-01-30T18:18:10.468Z,1.68
2019-01-30T18:21:15.614Z,1.58
2019-01-30T18:24:20.748Z,1.50
2019-01-30T18:27:25.922Z,1.49
2019-01-30T18:30:31.063Z,1.57
2019-01-30T18:33:36.223Z,1.43
2019-01-30T18:36:41.549Z,1.42
2019-01-30T18:39:49.674Z,1.43
2019-01-30T18:42:53.993Z,1.42
2019-01-30T18:45:59.133Z,1.40
2019-01-30T18:49:04.338Z,1.47
2019-01-30T18:52:09.455Z,1.45
2019-01-30T18:55:14.781Z,1.48
2019-01-30T18:58:19.940Z,1.38
2019-01-30T19:01:25.066Z,1.38
2019-01-30T19:04:30.209Z,1.33
2019-01-30T19:07:35.402Z,1.39
2019-01-30T19:10:40.660Z,1.29
2019-01-30T19:13:45.766Z,1.41
2019-01-30T19:16:50.916Z,1.31
2019-01-30T19:19:56.039Z,1.27
2019-01-30T19:23:01.215Z,1.32
2019-01-30T19:26:07.448Z,1.31
2019-01-30T19:29:12.797Z,1.26
2019-01-30T19:32:17.898Z,1.23
2019-01-30T19:35:23.022Z,1.28
2019-01-30T19:38:28.140Z,1.31
2019-01-30T19:41:33.265Z,1.39
2019-01-30T19:44:38.401Z,1.41
2019-01-30T19:47:43.546Z,1.43
2019-01-30T19:50:48.693Z,1.49
2019-01-30T19:53:54.017Z,1.54
2019-01-30T19:56:59.122Z,1.75
2019-01-30T20:00:04.866Z,1.53
2019-01-30T20:03:13.603Z,1.51
2019-01-30T20:06:18.733Z,1.45
2019-01-30T20:09:24.052Z,1.43
2019-01-30T20:12:29.211Z,1.46
2019-01-30T20:15:34.410Z,1.65
2019-01-30T20:18:39.525Z,1.57
2019-01-30T20:21:44.677Z,1.60
2019-01-30T20:24:49.898Z,1.62
2019-01-30T20:27:55.057Z,1.53
2019-01-30T20:31:01.316Z,1.61
2019-01-30T20:34:10.506Z,1.62
2019-01-30T20:37:13.614Z,1.46
2019-01-30T20:40:21.102Z,1.52
2019-01-30T20:43:26.308Z,1.50
2019-01-30T20:46:31.568Z,1.58
2019-01-30T20:49:36.787Z,1.46
2019-01-30T20:52:41.943Z,1.46
2019-01-30T20:55:47.118Z,1.47
2019-01-30T20:58:52.303Z,1.45
2019-01-30T21:01:57.443Z,1.47
2019-01-30T21:05:02.572Z,1.44
2019-01-30T21:08:08.206Z,1.36
2019-01-30T21:11:13.397Z,1.33
2019-01-30T21:14:18.621Z,1.24
2019-01-30T21:17:23.771Z,1.25
2019-01-30T21:20:28.999Z,1.32
2019-01-30T21:23:34.315Z,1.20
2019-01-30T21:26:39.487Z,1.35
2019-01-30T21:29:44.706Z,1.17
2019-01-30T21:32:49.997Z,1.27
2019-01-30T21:35:55.149Z,1.21
2019-01-30T21:39:00.362Z,1.15
2019-01-30T21:42:05.799Z,1.14
2019-01-30T21:45:13.270Z,1.16
2019-01-30T21:48:18.425Z,1.10
2019-01-30T21:51:23.659Z,1.06
2019-01-30T21:54:29.062Z,1.06
2019-01-30T21:57:34.498Z,0.95
2019-01-30T22:00:40.674Z,1.16
2019-01-30T22:03:45.918Z,1.05
2019-01-30T22:06:50.996Z,1.06
2019-01-30T22:09:56.140Z,0.94
2019-01-30T22:13:01.303Z,0.97
2019-01-30T22:16:06.808Z,0.95
2019-01-30T22:19:12.867Z,0.96
2019-01-30T22:22:17.976Z,0.95
2019-01-30T22:25:23.376Z,0.94
2019-01-30T22:28:28.589Z,0.86
2019-01-30T22:31:33.700Z,0.79
2019-01-30T22:34:39.091Z,0.82
2019-01-30T22:37:44.408Z,0.68
2019-01-30T22:40:50.604Z,0.53
2019-01-30T22:43:55.699Z,0.44
2019-01-30T22:47:00.855Z,0.28
2019-01-30T22:50:07.309Z,0.08
2019-01-30T22:53:12.439Z,-0.10
2019-01-30T22:56:17.564Z,0.26
2019-01-30T22:59:22.774Z,0.56
2019-01-30T23:02:28.389Z,0.41
2019-01-30T23:06:10.468Z,0.28
2019-01-30T23:10:02.599Z,-0.05
2019-01-30T23:13:39.207Z,-0.32
2019-01-30T23:17:21.359Z,-0.21
2019-01-30T23:20:31.665Z,-0.37
2019-01-30T23:24:35.941Z,-0.30
2019-01-30T23:27:51.192Z,-0.57
2019-01-30T23:31:40.599Z,-0.87
2019-01-30T23:35:22.938Z,-1.02
2019-01-30T23:39:21.264Z,-0.96
2019-01-30T23:43:02.386Z,-1.08
2019-01-30T23:46:37.030Z,-0.96
2019-01-30T23:50:25.297Z,-0.95
2019-01-30T23:53:57.489Z,-1.06
2019-01-30T23:57:34.451Z,-1.26
